EST,Max TemperatureF,Mean TemperatureF,Min TemperatureF,Max Dew PointF,MeanDew PointF,Min DewpointF,Max Humidity, Mean Humidity, Min Humidity, Max Sea Level PressureIn, Mean Sea Level PressureIn, Min Sea Level PressureIn, Max VisibilityMiles, Mean VisibilityMiles, Min VisibilityMiles, Max Wind SpeedMPH, Mean Wind SpeedMPH, Max Gust SpeedMPH,PrecipitationIn, CloudCover, Events, WindDirDegrees
2013-12-1,37,34,30,35,30,19,96,87,64,30.41,30.18,30.04,10,6,1,5,0,,0.06,8,Rain,309
2013-12-2,41,38,36,37,36,34,97,93,86,30.03,29.97,29.92,10,7,1,6,2,,0.01,8,Rain,352
2013-12-3,51,40,28,36,31,26,93,81,44,29.97,29.92,29.86,10,8,2,10,3,,0.00,2,,319
2013-12-4,43,33,23,27,24,20,96,74,45,30.21,30.11,29.98,10,8,2,12,2,,0.00,1,,315
2013-12-5,45,38,30,43,35,27,100,90,73,30.22,30.08,29.93,10,5,0,12,1,,0.01,8,Fog,10
2013-12-6,57,45,33,54,41,31,100,83,60,30.15,30.00,29.86,10,7,2,14,5,,0.31,8,Rain-Snow,309
2013-12-7,37,29,21,32,26,18,96,81,52,30.47,30.23,30.09,10,8,2,16,4,25,0.07,4,Rain-Snow,324
2013-12-8,30,24,18,19,15,12,85,65,47,30.60,30.54,30.48,10,10,10,8,2,,0.00,2,,332
2013-12-9,36,30,24,34,27,17,100,89,63,30.48,30.14,29.89,10,3,1,9,2,,0.29,8,Rain-Snow,342
2013-12-10,36,30,24,31,24,12,89,74,58,30.01,29.86,29.79,10,6,0,16,7,24,0.04,5,Fog-Snow,286
2013-12-11,30,26,21,17,14,10,71,62,49,30.20,30.14,30.03,10,10,5,17,9,29,0.00,2,Snow,248
2013-12-12,24,16,8,17,5,-2,81,59,34,30.29,30.20,30.06,10,10,5,15,6,24,0.00,1,Snow,287
2013-12-13,27,20,12,16,9,4,77,62,54,30.40,30.14,30.00,10,10,5,13,8,22,0.00,4,Snow,277
2013-12-14,16,12,9,12,3,-9,84,67,39,30.62,30.45,30.18,10,5,0,7,5,,0.25,7,Fog-Snow,21
2013-12-15,28,22,16,23,17,12,89,80,63,30.12,29.66,29.46,10,4,0,14,7,24,0.54,6,Fog-Rain-Snow,330
2013-12-16,26,19,9,18,7,2,81,54,39,30.21,29.99,29.75,10,10,5,21,8,32,0.00,2,Snow,277
2013-12-17,19,8,-4,13,5,-9,87,79,73,30.28,30.13,29.99,10,3,0,10,4,,0.34,6,Fog-Snow,350
2013-12-18,32,26,19,18,17,14,82,71,56,30.08,29.97,29.89,10,10,10,15,6,20,0.00,4,,304
2013-12-19,39,32,24,23,20,18,88,66,43,30.12,30.05,29.97,10,10,8,15,6,25,0.00,2,,216
2013-12-20,53,39,25,31,28,23,92,72,38,30.12,30.01,29.92,10,9,5,9,1,,0.00,3,,200
2013-12-21,55,42,28,43,35,27,93,81,55,29.96,29.91,29.86,10,9,5,9,2,,0.00,4,,173
2013-12-22,43,38,34,41,36,32,100,95,92,30.04,29.89,29.80,10,2,0,15,2,,0.02,8,Fog-Rain,17
2013-12-23,41,37,33,37,33,30,100,93,79,30.10,30.05,29.98,10,4,1,9,1,,0.45,8,Rain,21
2013-12-24,37,31,25,29,17,8,79,58,43,30.22,30.14,30.07,10,10,10,17,8,26,0.00,2,,306
2013-12-25,21,16,12,10,2,-2,65,49,35,30.55,30.46,30.25,10,10,8,15,10,28,0.00,2,Snow,326
2013-12-26,30,24,17,25,16,5,93,73,57,30.48,30.26,30.08,10,7,0,13,1,,0.06,6,Fog-Snow,281
2013-12-27,33,22,12,19,16,9,88,68,54,30.28,30.24,30.21,10,10,7,9,3,,0.00,2,,256
2013-12-28,45,34,23,26,22,17,88,66,43,30.20,30.09,30.01,10,10,8,13,3,20,0.00,0,,215
2013-12-29,39,31,23,36,31,20,97,88,67,30.04,29.74,29.49,10,6,0,12,3,,1.01,6,Fog-Rain,351
2013-12-30,41,30,17,33,19,5,89,62,37,30.18,29.91,29.59,10,10,10,18,9,33,0.00,1,,289
2013-12-31,24,17,10,13,6,2,73,59,42,30.19,30.12,30.03,10,10,10,12,4,,0.00,1,,279